createdAt,value
2019-04-29T00:02:05.667Z,66.80
2019-04-29T00:04:34.836Z,67.30
2019-04-29T00:07:04.087Z,66.80
2019-04-29T00:09:33.451Z,67.20
2019-04-29T00:12:02.545Z,68.20
2019-04-29T00:14:32.427Z,67.90
2019-04-29T00:17:09.194Z,67.00
2019-04-29T00:19:55.216Z,67.90
2019-04-29T00:22:24.439Z,67.50
2019-04-29T00:24:53.617Z,67.10
2019-04-29T00:27:22.867Z,67.40
2019-04-29T00:29:51.991Z,67.10
2019-04-29T00:32:21.201Z,67.10
2019-04-29T00:34:50.244Z,67.20
2019-04-29T00:37:29.711Z,68.00
2019-04-29T00:40:03.507Z,67.90
2019-04-29T00:42:37.018Z,67.80
2019-04-29T00:45:07.650Z,68.30
2019-04-29T00:47:36.743Z,68.50
2019-04-29T00:50:06.752Z,68.20
2019-04-29T00:52:35.922Z,67.90
2019-04-29T00:55:09.924Z,68.70
2019-04-29T00:57:38.261Z,69.00
2019-04-29T01:00:08.176Z,70.00
2019-04-29T01:02:37.459Z,68.10
2019-04-29T01:05:07.297Z,67.90
2019-04-29T01:07:36.662Z,68.00
2019-04-29T01:10:06.122Z,68.80
2019-04-29T01:12:35.196Z,69.50
2019-04-29T01:15:06.023Z,68.00
2019-04-29T01:17:35.159Z,68.20
2019-04-29T01:20:05.223Z,68.40
2019-04-29T01:22:34.389Z,67.80
2019-04-29T01:25:03.759Z,68.40
2019-04-29T01:27:34.479Z,68.10
2019-04-29T01:30:03.741Z,68.30
2019-04-29T01:32:33.135Z,67.90
2019-04-29T01:35:02.419Z,67.90
2019-04-29T01:37:33.222Z,68.80
2019-04-29T01:40:19.271Z,67.90
2019-04-29T01:42:48.411Z,68.90
2019-04-29T01:45:17.682Z,68.80
2019-04-29T01:47:46.943Z,68.50
2019-04-29T01:50:16.023Z,68.00
2019-04-29T01:52:45.235Z,68.20
2019-04-29T01:55:14.415Z,68.60
2019-04-29T01:57:43.425Z,68.10
2019-04-29T02:00:13.285Z,68.40
2019-04-29T02:02:42.519Z,68.60
2019-04-29T02:05:11.791Z,67.90
2019-04-29T02:07:41.007Z,68.40
2019-04-29T02:10:11.784Z,68.40
2019-04-29T02:12:40.937Z,68.60
2019-04-29T02:15:10.174Z,68.80
2019-04-29T02:17:39.119Z,68.20
2019-04-29T02:20:08.485Z,68.20
2019-04-29T02:22:42.018Z,69.00
2019-04-29T02:25:15.574Z,68.70
2019-04-29T02:27:44.699Z,68.80
2019-04-29T02:30:28.547Z,68.50
2019-04-29T02:32:57.602Z,69.10
2019-04-29T02:35:26.704Z,68.20
2019-04-29T02:37:55.890Z,68.50
2019-04-29T02:40:29.264Z,68.80
2019-04-29T02:42:59.912Z,69.30
2019-04-29T02:45:30.647Z,69.10
2019-04-29T02:50:28.562Z,68.90
2019-04-29T02:52:57.802Z,68.50
2019-04-29T02:55:28.443Z,69.20
2019-04-29T02:58:04.635Z,68.70
2019-04-29T03:00:35.337Z,68.70
2019-04-29T03:03:09.179Z,68.40
2019-04-29T03:05:42.880Z,68.30
2019-04-29T03:08:11.867Z,68.40
2019-04-29T03:10:41.013Z,69.00
2019-04-29T03:13:10.240Z,68.50
2019-04-29T03:15:40.945Z,68.70
2019-04-29T03:18:11.698Z,68.70
2019-04-29T03:20:51.398Z,69.00
2019-04-29T03:23:22.115Z,69.20
2019-04-29T03:25:51.393Z,69.00
2019-04-29T03:28:20.595Z,69.60
2019-04-29T03:30:49.721Z,69.00
2019-04-29T03:33:18.867Z,69.10
2019-04-29T03:35:48.279Z,69.80
2019-04-29T03:38:17.426Z,69.20
2019-04-29T03:40:46.614Z,69.10
2019-04-29T03:43:15.845Z,69.10
2019-04-29T03:45:45.082Z,69.60
2019-04-29T03:48:14.290Z,69.40
2019-04-29T03:50:43.478Z,69.20
2019-04-29T03:53:12.623Z,69.80
2019-04-29T03:55:41.928Z,69.40
2019-04-29T03:58:12.565Z,70.00
2019-04-29T04:00:44.271Z,69.30
2019-04-29T04:03:17.567Z,69.80
2019-04-29T04:05:48.377Z,69.80
2019-04-29T04:08:18.980Z,69.60
2019-04-29T04:10:48.261Z,69.90
2019-04-29T04:13:17.416Z,69.80
2019-04-29T04:15:46.538Z,69.60
2019-04-29T04:18:20.133Z,70.60
2019-04-29T04:20:49.422Z,70.10
2019-04-29T04:23:18.590Z,69.70
2019-04-29T04:25:47.796Z,69.80
2019-04-29T04:28:17.133Z,70.30
2019-04-29T04:30:46.307Z,71.00
2019-04-29T04:33:15.594Z,70.20
2019-04-29T04:35:44.897Z,70.30
2019-04-29T04:38:14.114Z,70.10
2019-04-29T04:40:44.706Z,69.60
2019-04-29T04:43:13.943Z,69.70
2019-04-29T04:45:43.115Z,69.50
2019-04-29T04:48:12.406Z,69.60
2019-04-29T04:50:41.682Z,70.20
2019-04-29T04:53:10.838Z,69.90
2019-04-29T04:55:41.499Z,70.60
2019-04-29T04:58:10.622Z,70.50
2019-04-29T05:00:39.972Z,69.90
2019-04-29T05:03:09.158Z,70.20
2019-04-29T05:05:38.489Z,71.20
2019-04-29T05:08:07.595Z,70.20
2019-04-29T05:10:36.895Z,70.90
2019-04-29T05:13:06.416Z,70.50
2019-04-29T05:15:35.610Z,71.30
2019-04-29T05:18:04.857Z,70.80
2019-04-29T05:20:33.896Z,70.90
2019-04-29T05:23:03.122Z,70.90
2019-04-29T05:25:32.365Z,70.80
2019-04-29T05:28:01.484Z,70.80
2019-04-29T05:30:30.683Z,70.90
2019-04-29T05:33:00.128Z,71.50
2019-04-29T05:35:42.861Z,71.80
2019-04-29T05:38:22.940Z,72.10
2019-04-29T05:40:56.744Z,72.00
2019-04-29T05:43:27.183Z,71.90
2019-04-29T05:46:01.295Z,72.30
2019-04-29T05:48:32.122Z,72.30
2019-04-29T05:51:03.092Z,72.60
2019-04-29T05:53:33.809Z,72.60
2019-04-29T05:56:03.126Z,73.10
2019-04-29T05:58:32.982Z,72.30
2019-04-29T06:01:04.674Z,72.20
2019-04-29T06:03:37.934Z,72.60
2019-04-29T06:06:04.747Z,72.10
2019-04-29T06:08:34.592Z,71.90
2019-04-29T06:11:04.619Z,72.50
2019-04-29T06:13:33.762Z,72.00
2019-04-29T06:16:02.896Z,72.90
2019-04-29T06:18:32.066Z,72.70
2019-04-29T06:21:08.959Z,72.70
2019-04-29T06:23:31.813Z,73.40
2019-04-29T06:26:00.941Z,72.10
2019-04-29T06:28:30.126Z,72.60
2019-04-29T06:30:59.854Z,73.20
2019-04-29T06:33:30.898Z,72.60
2019-04-29T06:35:59.963Z,71.90
2019-04-29T06:38:29.270Z,71.60
2019-04-29T06:40:58.539Z,71.30
2019-04-29T06:43:28.742Z,71.10
2019-04-29T06:45:58.642Z,70.80
2019-04-29T06:48:27.872Z,70.60
2019-04-29T06:50:57.118Z,70.10
2019-04-29T06:53:26.733Z,69.90
2019-04-29T06:55:55.938Z,70.30
2019-04-29T06:58:25.138Z,70.30
2019-04-29T07:00:55.735Z,69.80
2019-04-29T07:03:25.633Z,69.50
2019-04-29T07:05:55.810Z,69.20
2019-04-29T07:08:25.241Z,68.90
2019-04-29T07:10:56.034Z,68.80
2019-04-29T07:13:25.008Z,68.50
2019-04-29T07:15:54.050Z,68.20
2019-04-29T07:18:23.275Z,68.00
2019-04-29T07:20:52.781Z,68.00
2019-04-29T07:23:21.977Z,67.50
2019-04-29T07:25:51.323Z,67.40
2019-04-29T07:28:20.490Z,67.30
2019-04-29T07:31:01.145Z,67.30
2019-04-29T07:33:22.673Z,66.40
2019-04-29T07:35:51.463Z,65.50
2019-04-29T07:38:20.789Z,66.40
2019-04-29T07:40:50.020Z,65.50
2019-04-29T07:43:19.236Z,64.80
2019-04-29T07:46:03.650Z,64.40
2019-04-29T07:48:32.314Z,62.10
2019-04-29T07:51:04.228Z,64.20
2019-04-29T07:53:38.757Z,63.00
2019-04-29T07:56:06.489Z,63.10
2019-04-29T07:58:33.942Z,61.60
2019-04-29T08:01:03.143Z,61.90
2019-04-29T08:03:32.427Z,60.90
2019-04-29T08:06:01.762Z,61.00
2019-04-29T08:08:31.217Z,59.90
2019-04-29T08:11:00.544Z,60.40
2019-04-29T08:13:29.772Z,59.40
2019-04-29T08:15:58.995Z,59.30
2019-04-29T08:18:28.125Z,59.10
2019-04-29T08:20:57.264Z,58.60
2019-04-29T08:23:26.484Z,57.80
2019-04-29T08:25:57.514Z,57.80
2019-04-29T08:28:26.656Z,58.50
2019-04-29T08:30:56.014Z,56.90
2019-04-29T08:33:25.350Z,57.00
2019-04-29T08:35:54.489Z,58.20
2019-04-29T08:38:23.617Z,56.90
2019-04-29T08:40:52.683Z,56.10
2019-04-29T08:43:26.447Z,53.70
2019-04-29T08:45:57.079Z,51.80
2019-04-29T08:48:26.278Z,50.20
2019-04-29T08:50:55.571Z,49.70
2019-04-29T08:53:24.703Z,51.60
2019-04-29T08:55:53.935Z,52.70
2019-04-29T08:58:23.099Z,52.60
2019-04-29T09:00:55.848Z,48.50
2019-04-29T09:03:23.486Z,48.20
2019-04-29T09:06:05.280Z,47.60
2019-04-29T09:08:24.329Z,45.50
2019-04-29T09:10:53.519Z,47.40
2019-04-29T09:13:22.516Z,45.90
2019-04-29T09:15:51.766Z,44.70
2019-04-29T09:18:20.878Z,45.10
2019-04-29T09:20:50.187Z,42.30
2019-04-29T09:23:23.669Z,42.40
2019-04-29T09:26:03.499Z,42.30
2019-04-29T09:28:32.631Z,41.40
2019-04-29T09:31:01.895Z,43.40
2019-04-29T09:33:31.290Z,44.20
2019-04-29T09:36:00.533Z,43.50
2019-04-29T09:38:32.529Z,43.80
2019-04-29T09:41:02.441Z,43.20
2019-04-29T09:43:33.330Z,42.80
2019-04-29T09:46:06.716Z,43.10
2019-04-29T09:48:35.986Z,42.20
2019-04-29T09:51:16.613Z,44.20
2019-04-29T09:53:35.957Z,42.80
2019-04-29T09:56:05.180Z,43.60
2019-04-29T09:58:34.539Z,44.50
2019-04-29T10:01:08.089Z,43.80
2019-04-29T10:03:38.934Z,41.70
2019-04-29T10:06:19.007Z,42.30
2019-04-29T10:08:48.179Z,43.30
2019-04-29T10:11:17.571Z,42.30
2019-04-29T10:13:46.822Z,43.60
2019-04-29T10:16:20.580Z,43.30
2019-04-29T10:18:51.351Z,41.80
2019-04-29T10:21:21.601Z,42.50
2019-04-29T10:23:51.705Z,42.90
2019-04-29T10:26:20.889Z,41.30
2019-04-29T10:28:54.770Z,40.00
2019-04-29T10:31:24.121Z,42.10
2019-04-29T10:33:55.101Z,42.10
2019-04-29T10:36:26.206Z,41.90
2019-04-29T10:38:56.261Z,40.30
2019-04-29T10:41:36.047Z,40.30
2019-04-29T10:44:17.020Z,40.90
2019-04-29T10:47:06.248Z,40.10
2019-04-29T10:49:39.168Z,40.40
2019-04-29T10:52:07.726Z,39.40
2019-04-29T10:54:37.009Z,37.50
2019-04-29T10:57:06.170Z,38.40
2019-04-29T10:59:40.711Z,38.70
2019-04-29T11:02:14.107Z,39.40
2019-04-29T11:04:41.585Z,39.50
2019-04-29T11:07:14.417Z,40.20
2019-04-29T11:09:50.876Z,40.50
2019-04-29T11:12:19.839Z,40.10
2019-04-29T11:14:49.240Z,41.80
2019-04-29T11:17:19.354Z,40.20
2019-04-29T11:19:48.600Z,38.80
2019-04-29T11:22:19.356Z,40.10
2019-04-29T11:24:50.200Z,41.80
2019-04-29T11:27:26.622Z,41.10
2019-04-29T11:29:58.522Z,42.40
2019-04-29T11:32:30.352Z,42.10
2019-04-29T11:35:07.288Z,41.50
2019-04-29T11:37:36.559Z,41.90
2019-04-29T11:40:07.139Z,40.90
2019-04-29T11:42:41.228Z,39.50
2019-04-29T11:45:09.276Z,38.50
2019-04-29T11:47:38.462Z,37.50
2019-04-29T11:50:13.629Z,37.60
2019-04-29T11:52:42.902Z,37.30
2019-04-29T11:55:13.970Z,37.50
2019-04-29T11:57:50.935Z,36.60
2019-04-29T12:00:40.228Z,36.80
2019-04-29T12:03:14.387Z,37.90
2019-04-29T12:05:46.244Z,38.40
2019-04-29T12:08:16.911Z,38.60
2019-04-29T12:10:58.294Z,39.50
2019-04-29T12:13:19.071Z,38.30
2019-04-29T12:16:07.320Z,37.60
2019-04-29T12:18:39.786Z,35.70
2019-04-29T12:21:10.487Z,38.30
2019-04-29T12:23:39.752Z,37.20
2019-04-29T12:26:08.980Z,36.60
2019-04-29T12:28:42.621Z,37.70
2019-04-29T12:31:11.457Z,37.00
2019-04-29T12:33:44.995Z,36.80
2019-04-29T12:36:16.529Z,36.70
2019-04-29T12:38:49.735Z,37.10
2019-04-29T12:41:29.876Z,36.60
2019-04-29T12:43:59.579Z,36.40
2019-04-29T12:46:32.888Z,36.80
2019-04-29T12:49:03.635Z,38.20
2019-04-29T12:51:33.040Z,38.70
2019-04-29T12:54:02.071Z,37.50
2019-04-29T12:59:02.142Z,34.70
2019-04-29T13:01:51.012Z,35.10
2019-04-29T13:04:28.132Z,34.70
2019-04-29T13:06:58.844Z,34.70
2019-04-29T13:09:38.673Z,34.30
2019-04-29T13:12:19.171Z,34.50
2019-04-29T13:14:40.456Z,35.10
2019-04-29T13:17:15.092Z,35.20
2019-04-29T13:20:02.013Z,36.10
2019-04-29T13:22:29.059Z,35.70
2019-04-29T13:24:58.219Z,35.40
2019-04-29T13:27:27.359Z,35.70
2019-04-29T13:29:56.651Z,35.40
2019-04-29T13:32:29.865Z,35.20
2019-04-29T13:35:00.235Z,35.70
2019-04-29T13:37:29.079Z,36.20
2019-04-29T13:39:58.335Z,37.60
2019-04-29T13:42:27.495Z,37.00
2019-04-29T13:45:09.483Z,35.30
2019-04-29T13:47:32.049Z,35.30
2019-04-29T13:50:20.099Z,36.00
2019-04-29T13:52:45.543Z,36.50
2019-04-29T13:55:17.873Z,36.80
2019-04-29T13:57:49.544Z,35.60
2019-04-29T14:00:24.593Z,35.50
2019-04-29T14:02:59.217Z,33.50
2019-04-29T14:05:28.432Z,33.90
2019-04-29T14:07:57.586Z,34.20
2019-04-29T14:10:26.521Z,34.70
2019-04-29T14:13:09.072Z,34.60
2019-04-29T14:15:29.603Z,34.80
2019-04-29T14:17:57.611Z,34.70
2019-04-29T14:20:26.904Z,35.40
2019-04-29T14:22:56.176Z,36.60
2019-04-29T14:25:25.339Z,36.80
2019-04-29T14:27:54.495Z,36.70
2019-04-29T14:30:37.552Z,37.20
2019-04-29T14:32:56.093Z,36.30
2019-04-29T14:35:29.985Z,36.60
2019-04-29T14:38:04.382Z,36.60
2019-04-29T14:40:30.074Z,37.30
2019-04-29T14:43:26.851Z,37.70
2019-04-29T14:46:05.653Z,36.90
2019-04-29T14:48:42.690Z,36.70
2019-04-29T14:51:08.328Z,37.30
2019-04-29T14:53:37.536Z,37.70
2019-04-29T14:56:06.734Z,37.80
2019-04-29T14:58:36.029Z,38.20
2019-04-29T15:01:24.166Z,37.60
2019-04-29T15:03:57.749Z,38.00
2019-04-29T15:06:28.978Z,39.10
2019-04-29T15:08:57.738Z,39.40
2019-04-29T15:11:45.466Z,39.00
2019-04-29T15:14:26.352Z,38.10
2019-04-29T15:17:09.590Z,38.00
2019-04-29T15:19:55.744Z,38.00
2019-04-29T15:22:33.958Z,38.70
2019-04-29T15:25:03.070Z,39.10
2019-04-29T15:27:32.263Z,39.50
2019-04-29T15:30:01.578Z,40.80
2019-04-29T15:32:30.663Z,40.20
2019-04-29T15:34:59.753Z,41.20
2019-04-29T15:37:28.899Z,41.30
2019-04-29T15:39:58.546Z,41.50
2019-04-29T15:42:28.999Z,41.00
2019-04-29T15:44:58.164Z,41.10
2019-04-29T15:47:31.201Z,41.60
2019-04-29T15:50:00.838Z,41.20
2019-04-29T15:52:28.970Z,41.50
2019-04-29T15:54:58.095Z,41.90
2019-04-29T15:57:27.229Z,41.50
2019-04-29T16:00:00.003Z,41.60
2019-04-29T16:02:27.280Z,41.60
2019-04-29T16:04:58.135Z,41.60
2019-04-29T16:07:46.869Z,41.80
2019-04-29T16:10:35.877Z,42.30
2019-04-29T16:13:12.601Z,42.40
2019-04-29T16:15:41.852Z,42.70
2019-04-29T16:18:14.726Z,42.30
2019-04-29T16:20:41.891Z,42.70
2019-04-29T16:23:11.236Z,42.80
2019-04-29T16:25:41.009Z,43.70
2019-04-29T16:28:11.184Z,43.40
2019-04-29T16:30:40.430Z,43.50
2019-04-29T16:33:14.336Z,43.70
2019-04-29T16:35:40.502Z,44.00
2019-04-29T16:38:11.625Z,43.90
2019-04-29T16:40:42.003Z,44.10
2019-04-29T16:43:12.708Z,44.30
2019-04-29T16:45:51.656Z,44.60
2019-04-29T16:48:20.327Z,45.30
2019-04-29T16:50:49.527Z,45.20
2019-04-29T16:53:18.823Z,45.70
2019-04-29T16:55:48.091Z,46.00
2019-04-29T16:58:18.440Z,45.90
2019-04-29T17:00:52.792Z,46.00
2019-04-29T17:03:18.817Z,46.50
2019-04-29T17:05:48.040Z,45.90
2019-04-29T17:08:17.812Z,45.90
2019-04-29T17:10:57.601Z,47.20
2019-04-29T17:13:26.653Z,46.60
2019-04-29T17:15:55.878Z,46.50
2019-04-29T17:18:25.015Z,46.80
2019-04-29T17:20:54.306Z,47.20
2019-04-29T17:23:24.634Z,47.20
2019-04-29T17:25:54.001Z,46.90
2019-04-29T17:28:29.005Z,47.70
2019-04-29T17:30:57.536Z,47.70
2019-04-29T17:33:32.120Z,47.30
2019-04-29T17:36:01.860Z,47.60
2019-04-29T17:38:31.399Z,47.50
2019-04-29T17:41:01.120Z,48.10
2019-04-29T17:43:49.954Z,49.50
2019-04-29T17:46:36.073Z,48.80
2019-04-29T17:49:07.313Z,48.80
2019-04-29T17:51:38.497Z,48.70
2019-04-29T17:54:09.386Z,48.80
2019-04-29T17:56:49.763Z,49.20
2019-04-29T17:59:29.638Z,49.70
2019-04-29T18:02:21.522Z,49.70
2019-04-29T18:04:49.678Z,50.10
2019-04-29T18:07:25.378Z,49.60
2019-04-29T18:09:57.137Z,49.80
2019-04-29T18:12:26.179Z,49.90
2019-04-29T18:14:56.761Z,50.10
2019-04-29T18:17:31.175Z,50.40
2019-04-29T18:20:08.604Z,51.40
2019-04-29T18:22:44.874Z,51.30
2019-04-29T18:25:31.179Z,51.60
2019-04-29T18:28:05.159Z,51.60
2019-04-29T18:30:38.477Z,51.40
2019-04-29T18:33:12.061Z,51.50
2019-04-29T18:35:46.709Z,52.20
2019-04-29T18:38:26.318Z,52.10
2019-04-29T18:40:58.065Z,52.00
2019-04-29T18:43:29.778Z,52.60
2019-04-29T18:46:06.102Z,52.00
2019-04-29T18:48:45.592Z,52.10
2019-04-29T18:51:20.864Z,52.50
2019-04-29T18:53:52.059Z,52.30
2019-04-29T18:56:26.055Z,52.60
2019-04-29T18:58:59.964Z,53.30
2019-04-29T19:01:32.345Z,52.80
2019-04-29T19:04:13.597Z,52.50
2019-04-29T19:06:42.624Z,53.30
2019-04-29T19:09:25.283Z,53.20
2019-04-29T19:11:58.301Z,53.10
2019-04-29T19:14:30.145Z,52.90
2019-04-29T19:17:04.748Z,53.20
2019-04-29T19:19:39.347Z,53.70
2019-04-29T19:22:11.220Z,53.20
2019-04-29T19:24:47.994Z,53.70
2019-04-29T19:27:21.596Z,54.10
2019-04-29T19:34:14.782Z,55.40
2019-04-29T19:36:50.600Z,56.50
2019-04-29T19:39:25.498Z,54.80
2019-04-29T19:42:01.652Z,55.10
2019-04-29T19:44:36.767Z,55.50
2019-04-29T19:47:10.985Z,55.40
2019-04-29T19:49:44.662Z,56.20
2019-04-29T19:52:28.087Z,55.30
2019-04-29T19:54:52.927Z,56.10
2019-04-29T19:57:24.975Z,55.50
2019-04-29T19:59:57.706Z,55.90
2019-04-29T20:02:30.161Z,56.50
2019-04-29T20:05:05.924Z,56.10
2019-04-29T20:07:41.187Z,56.00
2019-04-29T20:10:10.127Z,56.30
2019-04-29T20:12:40.827Z,56.60
2019-04-29T20:15:12.560Z,56.80
2019-04-29T20:18:02.252Z,56.30
2019-04-29T20:20:38.463Z,57.10
2019-04-29T20:23:06.773Z,56.20
2019-04-29T20:25:39.055Z,57.20
2019-04-29T20:28:17.011Z,56.50
2019-04-29T20:30:42.617Z,57.00
2019-04-29T20:33:13.077Z,57.60
2019-04-29T20:35:45.321Z,57.60
2019-04-29T20:38:15.792Z,57.00
2019-04-29T20:40:47.406Z,58.20
2019-04-29T20:43:20.883Z,56.90
2019-04-29T20:45:48.969Z,57.10
2019-04-29T20:48:19.698Z,56.80
2019-04-29T20:50:52.860Z,57.30
2019-04-29T20:53:21.929Z,57.30
2019-04-29T20:55:51.398Z,57.00
2019-04-29T20:58:23.462Z,56.90
2019-04-29T21:00:55.922Z,57.80
2019-04-29T21:03:30.298Z,57.10
2019-04-29T21:05:54.979Z,56.90
2019-04-29T21:08:25.915Z,57.00
2019-04-29T21:10:56.818Z,56.90
2019-04-29T21:13:30.902Z,57.30
2019-04-29T21:16:02.004Z,56.90
2019-04-29T21:18:31.348Z,57.20
2019-04-29T21:21:06.406Z,56.30
2019-04-29T21:23:35.543Z,56.00
2019-04-29T21:26:05.308Z,56.30
2019-04-29T21:28:38.118Z,56.20
2019-04-29T21:31:05.249Z,56.10
2019-04-29T21:33:35.500Z,57.00
2019-04-29T21:36:12.426Z,57.20
2019-04-29T21:38:45.051Z,57.00
2019-04-29T21:41:19.540Z,57.50
2019-04-29T21:43:53.408Z,57.20
2019-04-29T21:46:24.973Z,57.20
2019-04-29T21:48:49.093Z,56.80
2019-04-29T21:51:18.443Z,57.80
2019-04-29T21:53:47.560Z,57.00
2019-04-29T21:56:16.782Z,56.80
2019-04-29T21:58:45.835Z,57.10
2019-04-29T22:01:15.535Z,57.70
2019-04-29T22:03:44.820Z,57.10
2019-04-29T22:06:14.227Z,58.00
2019-04-29T22:08:45.300Z,57.30
2019-04-29T22:11:15.515Z,57.30
2019-04-29T22:13:45.335Z,57.50
2019-04-29T22:16:15.782Z,58.00
2019-04-29T22:18:51.775Z,57.60
2019-04-29T22:21:21.900Z,57.60
2019-04-29T22:23:51.098Z,57.90
2019-04-29T22:26:23.147Z,58.20
2019-04-29T22:28:48.984Z,58.20
2019-04-29T22:31:19.375Z,57.80
2019-04-29T22:33:48.976Z,58.30
2019-04-29T22:36:18.408Z,57.80
2019-04-29T22:38:48.705Z,58.60
2019-04-29T22:41:20.305Z,57.90
2019-04-29T22:43:57.011Z,58.10
2019-04-29T22:46:26.207Z,58.80
2019-04-29T22:48:55.818Z,58.70
2019-04-29T22:51:25.479Z,58.90
2019-04-29T22:53:55.833Z,58.70
2019-04-29T22:56:25.918Z,58.70
2019-04-29T22:58:56.038Z,59.00
2019-04-29T23:01:28.141Z,59.40
2019-04-29T23:03:57.472Z,59.30
2019-04-29T23:06:28.047Z,59.10
2019-04-29T23:08:57.232Z,59.40
2019-04-29T23:11:26.596Z,59.30
2019-04-29T23:13:55.869Z,60.10
2019-04-29T23:16:25.112Z,60.00
2019-04-29T23:18:55.256Z,59.60
2019-04-29T23:21:29.288Z,59.80
2019-04-29T23:24:17.331Z,60.30
2019-04-29T23:26:46.260Z,60.30
2019-04-29T23:29:15.681Z,60.00
2019-04-29T23:31:45.370Z,60.20
2019-04-29T23:34:15.530Z,61.20
2019-04-29T23:36:48.859Z,60.20
2019-04-29T23:39:15.606Z,60.90
2019-04-29T23:41:45.132Z,60.30
2019-04-29T23:44:14.391Z,60.50
2019-04-29T23:46:43.527Z,60.50
2019-04-29T23:49:12.860Z,60.70
2019-04-29T23:51:41.994Z,61.20
2019-04-29T23:54:11.269Z,60.60
2019-04-29T23:57:00.290Z,60.80
2019-04-29T23:59:39.867Z,61.60
